AirNav   Duncan Aviation - Near you to keep you flying
 
 1595 users online  

CT66 Cambrown Airport
Washington, Connecticut, USA

GOING TO WASHINGTON?


FAA INFORMATION EFFECTIVE 01 DECEMBER 2022

Location

FAA Identifier: CT66
Lat/Long: 41-40-00.3450N 073-16-58.4190W
41-40.005750N 073-16.973650W
41.6667625,-73.2828942
(estimated)
Elevation: 940 ft. / 287 m (estimated)
Variation: 14W (1985)
From city: 3 miles N of WASHINGTON, CT
Time zone: UTC -5 (UTC -4 during Daylight Saving Time)
Zip code: 06793

Airport Operations

Airport use: Private use. Permission required prior to landing
Control tower: no
ARTCC: BOSTON CENTER
FSS: BRIDGEPORT FLIGHT SERVICE STATION
Attendance: UNATNDD
Wind indicator: yes
Segmented circle: no

Airport Communications

WX AWOS-3PT at OXC (13 nm SE): 132.975 (203-262-1190)
WX ASOS at DXR (20 nm SW): 127.75 (203-791-8227)

Nearby radio navigation aids

VOR radial/distance  VOR name  Freq  Var
PWLr125/15.5PAWLING VOR/DME114.3012W
IGNr102/24.2KINGSTON VOR/DME117.6012W
CMKr042/26.8CARMEL VOR/DME116.6012W
BDRr359/31.2BRIDGEPORT VOR/DME108.8012W
HFDr286/33.0HARTFORD VOR/DME114.9013W
MADr322/34.0MADISON VOR/DME110.4013W
BAFr234/39.0BARNES VORTAC113.0014W

 
NDB name  Hdg/Dist  Freq  Var  ID
STANWYCK088/35.226112WSKU ... -.- ..-

Airport Services

Airframe service: NONE
Powerplant service: NONE

Runway Information

Runway 14/32

Dimensions: 1400 x 50 ft. / 427 x 15 m
Surface: turf
RUNWAY 14  RUNWAY 32
Traffic pattern: leftleft
Obstructions: none60 ft. trees, 500 ft. from runway

Airport Ownership and Management from official FAA records

Ownership: Privately-owned
Owner: DR. CAMERON BROWN
96 ROMFORD ROAD
WASHINGTON DEPOT, CT 06794
Phone (860) 567-1011
CELL 802-488-0098
Manager: DR. CAMERON BROWN
96 ROMFORD ROAD
WASHINGTON DEPOT, CT 06794
Phone (860) 567-1011

Airport Operational Statistics

Aircraft based on the field: 3
Single engine airplanes: 1
Helicopters: 1
Ultralights: 1
    

Additional Remarks

FOR CD CTC YANKEE APCH AT 860-386-3597

Instrument Procedures

There are no published instrument procedures at CT66.

Some nearby airports with instrument procedures:

KOXC - Waterbury-Oxford Airport (13 nm SE)
4B8 - Robertson Field Airport (19 nm E)
KDXR - Danbury Municipal Airport (20 nm SW)
44N - Sky Acres Airport (21 nm W)
KMMK - Meriden Markham Municipal Airport (22 nm SE)
 
Loc | Ops | Rwys | IFR | FBO | Links
Com | Nav | Svcs | Stats | Notes

Silver City Flying Club
 
Area around CT66 (Cambrown Airport)
 
Road maps at: MapQuest Bing Google
 
Aerial photo
No photo
 
Sectional chart

 
Airport distance calculator
Flying to Cambrown Airport? Find the distance to fly.

From to CT66

Sunrise and sunset
Times for 08-Dec-2022
 Local
(UTC-5)
 Zulu
(UTC)
Morning civil twilight06:3711:37
Sunrise07:0812:08
Sunset16:2221:22
Evening civil twilight16:5321:53

Current date and time
Zulu (UTC)  08-Dec-2022 17:10:20
Local (UTC-5)  08-Dec-2022 12:10:20
 
METAR
KOXC 
14nm SE 
081651Z 33009G18KT 10SM OVC035 09/02 A3019 RMK AO2 SLP239 T00890017
KDXR 
20nm SW 
081653Z 33008KT 10SM BKN041 11/02 A3022 RMK AO2 SLP233 T01060017
KMMK 
22nm SE 
081653Z AUTO 33010G18KT 10SM SCT046 12/01 A3019 RMK AO2 SLP222 T01170006
KPOU 
27nm W 
081653Z 35008KT 10SM CLR 11/03 A3021 RMK AO2 SLP227 T01110033
TAF
KPOU 
27nm W 
081148Z 0812/0912 VRB03KT P6SM FEW040 FEW250 TEMPO 0812/0814 2SM BR FM081500 34010KT P6SM SCT040 FM090300 36004KT P6SM SKC
KBDR 
31nm S 
081434Z 0815/0912 34012G22KT P6SM SCT035 SCT250 FM082100 33011KT P6SM SCT250 FM090300 36007KT P6SM SCT250
KBDL 
31nm NE 
081444Z 0815/0918 34009KT P6SM FEW200 FM081600 33011G21KT P6SM FEW250 FM082200 34009KT P6SM FEW250
NOTAMs
Click for the latest NOTAMs
NOTAMs are issued by the DoD/FAA and will open in a separate window not controlled by AirNav.

 

 
 

Would you like to see your business listed on this page?

 If your business provides an interesting product or service to pilots, flight crews, aircraft, or users of the Cambrown Airport, you should consider listing it here.  To start the listing process, click on the button below
 
Add a business
 

Other Pages about Cambrown Airport

Update a link
 
Copyright © AirNav, LLC. All rights reserved. Privacy Policy  Contact